createdAt,value
2017-10-13T00:00:18.670Z,0
2017-10-13T00:01:18.998Z,0
2017-10-13T00:02:19.309Z,0
2017-10-13T00:03:19.310Z,0
2017-10-13T00:04:19.629Z,0
2017-10-13T00:05:19.294Z,0
2017-10-13T00:06:19.290Z,0
2017-10-13T00:07:18.632Z,0
2017-10-13T00:08:18.623Z,0
2017-10-13T00:09:19.270Z,0
2017-10-13T00:10:18.944Z,0
2017-10-13T00:11:18.603Z,0
2017-10-13T00:12:18.598Z,0
2017-10-13T00:13:18.915Z,0
2017-10-13T00:14:18.586Z,0
2017-10-13T00:15:19.227Z,0
2017-10-13T00:16:19.222Z,0
2017-10-13T00:17:18.566Z,0
2017-10-13T00:18:18.560Z,0
2017-10-13T00:19:18.251Z,0
2017-10-13T00:20:19.516Z,0
2017-10-13T00:21:19.194Z,0
2017-10-13T00:22:19.183Z,0
2017-10-13T00:23:19.179Z,0
2017-10-13T00:24:18.524Z,0
2017-10-13T00:25:18.524Z,0
2017-10-13T00:26:18.515Z,0
2017-10-13T00:27:18.505Z,0
2017-10-13T00:28:18.499Z,0
2017-10-13T00:29:18.169Z,0
2017-10-13T00:30:18.485Z,0
2017-10-13T00:31:19.139Z,0
2017-10-13T00:32:19.137Z,0
2017-10-13T00:33:18.469Z,0
2017-10-13T00:34:18.460Z,0
2017-10-13T00:35:19.100Z,0
2017-10-13T00:36:18.774Z,0
2017-10-13T00:37:18.440Z,0
2017-10-13T00:38:18.763Z,0
2017-10-13T00:39:19.082Z,0
2017-10-13T00:40:19.090Z,0
2017-10-13T00:41:19.073Z,0
2017-10-13T00:42:19.062Z,0
2017-10-13T00:43:19.411Z,0
2017-10-13T00:44:18.395Z,0
2017-10-13T00:45:19.038Z,0
2017-10-13T00:46:18.716Z,0
2017-10-13T00:47:19.358Z,0
2017-10-13T00:48:18.702Z,0
2017-10-13T00:49:19.023Z,0
2017-10-13T00:50:19.019Z,0
2017-10-13T00:51:18.370Z,0
2017-10-13T00:52:18.349Z,0
2017-10-13T00:53:18.985Z,0
2017-10-13T00:54:18.670Z,0
2017-10-13T00:55:18.332Z,0
2017-10-13T00:56:18.320Z,0
2017-10-13T00:57:18.971Z,0
2017-10-13T00:58:18.963Z,0
2017-10-13T01:02:49.047Z,0
2017-10-13T01:03:04.616Z,0
2017-10-13T01:04:05.585Z,0
2017-10-13T01:05:04.976Z,0
2017-10-13T01:06:04.596Z,0
2017-10-13T01:07:04.644Z,0
2017-10-13T01:08:04.913Z,0
2017-10-13T01:09:04.907Z,0
2017-10-13T01:10:04.913Z,0
2017-10-13T01:11:05.218Z,0
2017-10-13T01:12:04.607Z,0
2017-10-13T01:13:04.876Z,0
2017-10-13T01:14:04.872Z,0
2017-10-13T01:15:04.540Z,0
2017-10-13T01:16:04.864Z,0
2017-10-13T01:17:05.178Z,0
2017-10-13T01:18:04.843Z,0
2017-10-13T01:19:04.843Z,0
2017-10-13T01:20:04.514Z,0
2017-10-13T01:21:04.845Z,0
2017-10-13T01:22:04.836Z,0
2017-10-13T01:23:04.169Z,0
2017-10-13T01:24:04.811Z,0
2017-10-13T01:25:04.814Z,0
2017-10-13T01:26:04.161Z,0
2017-10-13T01:27:04.474Z,0
2017-10-13T01:28:04.784Z,0
2017-10-13T01:29:04.134Z,0
2017-10-13T01:30:04.445Z,0
2017-10-13T01:31:05.422Z,0
2017-10-13T01:32:05.079Z,0
2017-10-13T01:33:04.749Z,0
2017-10-13T01:34:04.748Z,0
2017-10-13T01:35:04.734Z,0
2017-10-13T01:36:04.733Z,0
2017-10-13T01:37:04.729Z,0
2017-10-13T01:38:04.721Z,0
2017-10-13T01:39:04.389Z,0
2017-10-13T01:40:04.708Z,0
2017-10-13T01:41:05.368Z,0
2017-10-13T01:42:04.375Z,0
2017-10-13T01:43:04.687Z,0
2017-10-13T01:44:04.683Z,0
2017-10-13T01:45:04.685Z,0
2017-10-13T01:46:04.672Z,0
2017-10-13T01:47:04.340Z,0
2017-10-13T01:48:04.655Z,0
2017-10-13T01:49:04.328Z,0
2017-10-13T01:50:04.638Z,0
2017-10-13T01:51:04.962Z,0
2017-10-13T01:52:03.986Z,0
2017-10-13T01:53:04.620Z,0
2017-10-13T01:54:05.304Z,0
2017-10-13T01:55:04.610Z,0
2017-10-13T01:56:04.606Z,0
2017-10-13T01:57:04.605Z,0
2017-10-13T01:58:04.270Z,0
2017-10-13T01:59:04.912Z,0
2017-10-13T02:00:04.583Z,0
2017-10-13T02:01:04.896Z,0
2017-10-13T02:02:04.891Z,0
2017-10-13T02:03:04.558Z,0
2017-10-13T02:04:04.879Z,0
2017-10-13T02:05:04.555Z,0
2017-10-13T02:06:04.551Z,0
2017-10-13T02:07:04.885Z,0
2017-10-13T02:08:04.532Z,0
2017-10-13T02:09:04.525Z,0
2017-10-13T02:10:03.866Z,0
2017-10-13T02:11:04.833Z,0
2017-10-13T02:12:05.148Z,0
2017-10-13T02:13:04.823Z,0
2017-10-13T02:14:04.498Z,0
2017-10-13T02:15:04.161Z,0
2017-10-13T02:16:04.478Z,0
2017-10-13T02:17:04.480Z,0
2017-10-13T02:18:05.112Z,0
2017-10-13T02:19:04.788Z,0
2017-10-13T02:20:04.452Z,0
2017-10-13T02:21:04.125Z,0
2017-10-13T02:22:04.442Z,0
2017-10-13T02:23:04.753Z,0
2017-10-13T02:24:04.099Z,0
2017-10-13T02:25:04.418Z,0
2017-10-13T02:26:04.093Z,0
2017-10-13T02:27:04.733Z,0
2017-10-13T02:28:04.076Z,0
2017-10-13T02:29:04.399Z,0
2017-10-13T02:30:04.395Z,0
2017-10-13T02:31:04.064Z,0
2017-10-13T02:32:04.694Z,0
2017-10-13T02:33:04.050Z,0
2017-10-13T02:34:04.037Z,0
2017-10-13T02:35:04.692Z,0
2017-10-13T02:36:04.031Z,0
2017-10-13T02:37:04.670Z,0
2017-10-13T02:38:04.015Z,0
2017-10-13T02:39:03.683Z,0
2017-10-13T02:40:04.002Z,0
2017-10-13T02:41:04.970Z,0
2017-10-13T02:42:04.317Z,0
2017-10-13T02:43:04.964Z,0
2017-10-13T02:44:04.305Z,0
2017-10-13T02:45:04.621Z,0
2017-10-13T02:46:04.938Z,0
2017-10-13T02:47:04.610Z,0
2017-10-13T02:48:04.930Z,0
2017-10-13T02:49:03.941Z,0
2017-10-13T02:50:04.269Z,0
2017-10-13T02:51:03.935Z,0
2017-10-13T02:52:04.251Z,0
2017-10-13T02:53:04.568Z,0
2017-10-13T02:54:04.239Z,0
2017-10-13T02:55:04.568Z,0
2017-10-13T02:56:03.899Z,0
2017-10-13T02:57:04.541Z,0
2017-10-13T02:58:04.225Z,0
2017-10-13T02:59:04.202Z,0
2017-10-13T03:00:04.534Z,0
2017-10-13T03:01:04.542Z,0
2017-10-13T03:02:04.834Z,0
2017-10-13T03:03:04.182Z,0
2017-10-13T03:04:03.845Z,0
2017-10-13T03:05:03.841Z,0
2017-10-13T03:06:04.499Z,0
2017-10-13T03:07:04.156Z,0
2017-10-13T03:08:03.823Z,0
2017-10-13T03:09:04.468Z,0
2017-10-13T03:10:03.812Z,0
2017-10-13T03:11:04.126Z,0
2017-10-13T03:12:03.798Z,0
2017-10-13T03:13:04.434Z,0
2017-10-13T03:14:04.430Z,0
2017-10-13T03:15:04.437Z,0
2017-10-13T03:16:04.092Z,0
2017-10-13T03:17:04.422Z,0
2017-10-13T03:18:04.088Z,0
2017-10-13T03:19:04.718Z,0
2017-10-13T03:20:04.087Z,0
2017-10-13T03:21:04.067Z,0
2017-10-13T03:22:04.402Z,0
2017-10-13T03:23:04.054Z,0
2017-10-13T03:24:04.048Z,0
2017-10-13T03:25:03.717Z,0
2017-10-13T03:26:04.030Z,0
2017-10-13T03:27:03.701Z,0
2017-10-13T03:28:04.333Z,0
2017-10-13T03:29:04.341Z,0
2017-10-13T03:30:04.345Z,0
2017-10-13T03:31:04.002Z,0
2017-10-13T03:32:04.329Z,0
2017-10-13T03:33:03.660Z,0
2017-10-13T03:34:04.340Z,0
2017-10-13T03:35:03.650Z,0
2017-10-13T03:36:03.970Z,0
2017-10-13T03:37:04.292Z,0
2017-10-13T03:38:04.277Z,0
2017-10-13T03:39:03.303Z,0
2017-10-13T03:40:04.265Z,0
2017-10-13T03:41:03.614Z,0
2017-10-13T03:42:04.602Z,0
2017-10-13T03:43:04.572Z,0
2017-10-13T03:44:03.591Z,0
2017-10-13T03:45:04.241Z,0
2017-10-13T03:46:04.261Z,0
2017-10-13T03:47:03.901Z,0
2017-10-13T03:48:04.548Z,0
2017-10-13T03:49:03.564Z,0
2017-10-13T03:50:03.559Z,0
2017-10-13T03:51:03.545Z,0
2017-10-13T03:52:04.514Z,0
2017-10-13T03:53:03.859Z,0
2017-10-13T03:54:04.499Z,0
2017-10-13T03:55:03.851Z,0
2017-10-13T03:56:03.514Z,0
2017-10-13T03:57:03.514Z,0
2017-10-13T03:58:04.164Z,0
2017-10-13T03:59:03.819Z,0
2017-10-13T04:00:03.813Z,0
2017-10-13T04:01:04.127Z,0
2017-10-13T04:02:04.125Z,0
2017-10-13T04:03:03.792Z,0
2017-10-13T04:04:04.118Z,0
2017-10-13T04:05:03.457Z,0
2017-10-13T04:06:03.774Z,0
2017-10-13T04:07:04.101Z,0
2017-10-13T04:08:03.763Z,0
2017-10-13T04:09:03.754Z,0
2017-10-13T04:10:04.071Z,0
2017-10-13T04:11:04.083Z,0
2017-10-13T04:12:03.416Z,0
2017-10-13T04:13:03.727Z,0
2017-10-13T04:14:03.403Z,0
2017-10-13T04:15:04.050Z,0
2017-10-13T04:16:03.388Z,0
2017-10-13T04:17:03.704Z,0
2017-10-13T04:18:03.376Z,0
2017-10-13T04:19:03.369Z,0
2017-10-13T04:20:04.011Z,0
2017-10-13T04:21:04.003Z,0
2017-10-13T04:22:03.344Z,0
2017-10-13T04:23:04.317Z,0
2017-10-13T04:24:03.010Z,0
2017-10-13T04:25:03.326Z,0
2017-10-13T04:26:03.642Z,0
2017-10-13T04:27:03.980Z,0
2017-10-13T04:28:03.960Z,0
2017-10-13T04:29:03.630Z,0
2017-10-13T04:30:03.296Z,0
2017-10-13T04:31:03.619Z,0
2017-10-13T04:32:03.280Z,0
2017-10-13T04:33:03.605Z,0
2017-10-13T04:34:03.266Z,0
2017-10-13T04:35:03.260Z,0
2017-10-13T04:36:03.909Z,0
2017-10-13T04:37:03.249Z,0
2017-10-13T04:38:03.567Z,0
2017-10-13T04:39:03.560Z,0
2017-10-13T04:40:03.230Z,0
2017-10-13T04:41:03.545Z,0
2017-10-13T04:42:03.537Z,0
2017-10-13T04:43:02.887Z,0
2017-10-13T04:44:03.871Z,0
2017-10-13T04:45:03.860Z,0
2017-10-13T04:46:03.510Z,0
2017-10-13T04:47:03.511Z,0
2017-10-13T04:48:03.512Z,0
2017-10-13T04:49:03.829Z,0
2017-10-13T04:50:03.483Z,0
2017-10-13T04:51:03.158Z,0
2017-10-13T04:52:03.796Z,0
2017-10-13T04:53:03.793Z,0
2017-10-13T04:54:03.464Z,0
2017-10-13T04:55:03.129Z,0
2017-10-13T04:56:03.130Z,0
2017-10-13T04:57:03.116Z,0
2017-10-13T04:58:03.764Z,0
2017-10-13T04:59:03.459Z,0
2017-10-13T05:00:03.420Z,0
2017-10-13T05:01:03.741Z,0
2017-10-13T05:02:03.408Z,0
2017-10-13T05:03:03.404Z,0
2017-10-13T05:04:03.072Z,0
2017-10-13T05:05:03.393Z,0
2017-10-13T05:06:02.735Z,0
2017-10-13T05:07:03.381Z,0
2017-10-13T05:08:03.044Z,0
2017-10-13T05:09:03.382Z,0
2017-10-13T05:10:03.360Z,0
2017-10-13T05:11:03.354Z,0
2017-10-13T05:12:03.345Z,0
2017-10-13T05:13:03.333Z,0
2017-10-13T05:14:03.649Z,0
2017-10-13T05:15:03.325Z,0
2017-10-13T05:16:02.993Z,0
2017-10-13T05:17:02.986Z,0
2017-10-13T05:18:03.625Z,0
2017-10-13T05:19:02.977Z,0
2017-10-13T05:20:03.620Z,0
2017-10-13T05:21:03.940Z,0
2017-10-13T05:22:03.612Z,0
2017-10-13T05:23:03.598Z,0
2017-10-13T05:24:03.598Z,0
2017-10-13T05:25:03.590Z,0
2017-10-13T05:26:03.251Z,0
2017-10-13T05:27:03.252Z,0
2017-10-13T05:28:03.239Z,0
2017-10-13T05:29:03.241Z,0
2017-10-13T05:30:03.229Z,0
2017-10-13T05:31:02.896Z,0
2017-10-13T05:32:02.562Z,0
2017-10-13T05:33:03.526Z,0
2017-10-13T05:34:03.852Z,0
2017-10-13T05:35:02.544Z,0
2017-10-13T05:36:02.859Z,0
2017-10-13T05:37:03.505Z,0
2017-10-13T05:38:03.839Z,0
2017-10-13T05:39:02.843Z,0
2017-10-13T05:40:02.846Z,0
2017-10-13T05:41:03.150Z,0
2017-10-13T05:42:02.823Z,0
2017-10-13T05:43:03.466Z,0
2017-10-13T05:44:02.816Z,0
2017-10-13T05:45:03.125Z,0
2017-10-13T05:46:03.440Z,0
2017-10-13T05:47:03.444Z,0
2017-10-13T05:48:03.128Z,0
2017-10-13T05:49:03.426Z,0
2017-10-13T05:50:03.433Z,0
2017-10-13T05:51:03.418Z,0
2017-10-13T05:52:03.081Z,0
2017-10-13T05:53:03.398Z,0
2017-10-13T05:54:03.390Z,0
2017-10-13T05:55:02.741Z,0
2017-10-13T05:56:03.052Z,0
2017-10-13T05:57:03.381Z,0
2017-10-13T05:58:03.367Z,0
2017-10-13T05:59:02.709Z,0
2017-10-13T06:00:03.351Z,0
2017-10-13T06:01:03.348Z,0
2017-10-13T06:02:03.347Z,0
2017-10-13T06:03:03.006Z,0
2017-10-13T06:04:02.682Z,0
2017-10-13T06:05:02.997Z,0
2017-10-13T06:06:03.664Z,0
2017-10-13T06:07:03.306Z,0
2017-10-13T06:08:02.976Z,0
2017-10-13T06:09:02.321Z,0
2017-10-13T06:10:02.642Z,0
2017-10-13T06:11:02.953Z,0
2017-10-13T06:12:02.626Z,0
2017-10-13T06:13:02.940Z,0
2017-10-13T06:14:02.617Z,0
2017-10-13T06:15:02.614Z,0
2017-10-13T06:16:02.602Z,0
2017-10-13T06:17:03.251Z,0
2017-10-13T06:18:02.914Z,0
2017-10-13T06:19:02.903Z,0
2017-10-13T06:20:02.573Z,0
2017-10-13T06:21:02.886Z,0
2017-10-13T06:22:03.216Z,0
2017-10-13T06:23:02.557Z,0
2017-10-13T06:24:02.869Z,0
2017-10-13T06:25:02.861Z,0
2017-10-13T06:26:02.860Z,0
2017-10-13T06:27:03.172Z,0
2017-10-13T06:28:02.519Z,0
2017-10-13T06:29:03.169Z,0
2017-10-13T06:30:02.834Z,0
2017-10-13T06:31:02.828Z,0
2017-10-13T06:32:02.817Z,0
2017-10-13T06:33:02.485Z,5
2017-10-13T06:34:02.499Z,5
2017-10-13T06:35:02.484Z,5
2017-10-13T06:36:02.790Z,5
2017-10-13T06:37:03.106Z,5
2017-10-13T06:38:02.127Z,5
2017-10-13T06:39:03.421Z,5
2017-10-13T06:40:02.438Z,5
2017-10-13T06:41:02.436Z,5
2017-10-13T06:42:02.759Z,5
2017-10-13T06:43:03.405Z,5
2017-10-13T06:44:02.415Z,5
2017-10-13T06:45:02.743Z,5
2017-10-13T06:46:02.733Z,5
2017-10-13T06:47:03.038Z,5
2017-10-13T06:48:03.052Z,5
2017-10-13T06:49:02.709Z,5
2017-10-13T06:50:02.697Z,5
2017-10-13T06:51:02.374Z,5
2017-10-13T06:52:03.353Z,5
2017-10-13T06:53:02.354Z,5
2017-10-13T06:54:03.002Z,5
2017-10-13T06:55:02.666Z,5
2017-10-13T06:56:02.330Z,5
2017-10-13T06:57:02.321Z,5
2017-10-13T06:58:02.641Z,5
2017-10-13T06:59:02.643Z,5
2017-10-13T07:00:03.274Z,5
2017-10-13T07:01:02.972Z,5
2017-10-13T07:02:02.626Z,10
2017-10-13T07:03:02.628Z,5
2017-10-13T07:04:02.601Z,5
2017-10-13T07:05:01.950Z,5
2017-10-13T07:06:02.594Z,5
2017-10-13T07:07:02.257Z,10
2017-10-13T07:08:02.937Z,10
2017-10-13T07:09:02.892Z,10
2017-10-13T07:10:02.241Z,10
2017-10-13T07:11:02.553Z,10
2017-10-13T07:12:02.240Z,10
2017-10-13T07:13:02.540Z,10
2017-10-13T07:14:01.889Z,10
2017-10-13T07:15:02.864Z,10
2017-10-13T07:16:02.523Z,10
2017-10-13T07:17:02.193Z,10
2017-10-13T07:18:03.157Z,10
2017-10-13T07:19:02.182Z,10
2017-10-13T07:20:02.497Z,10
2017-10-13T07:21:03.134Z,10
2017-10-13T07:22:02.820Z,10
2017-10-13T07:23:02.164Z,10
2017-10-13T07:24:01.824Z,10
2017-10-13T07:25:02.790Z,10
2017-10-13T07:26:02.136Z,10
2017-10-13T07:27:02.456Z,10
2017-10-13T07:28:02.451Z,10
2017-10-13T07:29:02.769Z,10
2017-10-13T07:30:02.767Z,10
2017-10-13T07:31:02.424Z,10
2017-10-13T07:32:02.742Z,10
2017-10-13T07:33:02.735Z,10
2017-10-13T07:34:02.404Z,10
2017-10-13T07:35:02.770Z,10
2017-10-13T07:36:02.394Z,10
2017-10-13T07:37:01.736Z,10
2017-10-13T07:38:02.701Z,10
2017-10-13T07:39:03.017Z,10
2017-10-13T07:40:02.370Z,15
2017-10-13T07:41:02.038Z,15
2017-10-13T07:42:02.030Z,15
2017-10-13T07:43:02.672Z,15
2017-10-13T07:44:02.353Z,15
2017-10-13T07:45:02.008Z,15
2017-10-13T07:46:02.346Z,10
2017-10-13T07:47:02.322Z,10
2017-10-13T07:48:02.639Z,15
2017-10-13T07:49:02.632Z,15
2017-10-13T07:50:02.311Z,15
2017-10-13T07:51:01.971Z,15
2017-10-13T07:52:02.608Z,15
2017-10-13T07:53:02.630Z,15
2017-10-13T07:54:01.948Z,15
2017-10-13T07:55:01.623Z,15
2017-10-13T07:56:01.934Z,15
2017-10-13T07:57:01.931Z,15
2017-10-13T07:58:02.250Z,15
2017-10-13T07:59:01.596Z,15
2017-10-13T08:00:02.568Z,15
2017-10-13T08:01:02.577Z,15
2017-10-13T08:02:02.546Z,15
2017-10-13T08:03:02.210Z,15
2017-10-13T08:04:02.864Z,15
2017-10-13T08:05:02.201Z,15
2017-10-13T08:06:02.538Z,15
2017-10-13T08:07:02.515Z,15
2017-10-13T08:08:01.865Z,15
2017-10-13T08:09:02.178Z,15
2017-10-13T08:10:02.171Z,15
2017-10-13T08:11:02.492Z,15
2017-10-13T08:12:01.515Z,15
2017-10-13T08:13:01.826Z,15
2017-10-13T08:14:02.470Z,10
2017-10-13T08:15:01.810Z,10
2017-10-13T08:16:01.819Z,10
2017-10-13T08:17:02.173Z,15
2017-10-13T08:18:02.763Z,15
2017-10-13T08:19:02.443Z,15
2017-10-13T08:20:01.787Z,15
2017-10-13T08:21:02.434Z,15
2017-10-13T08:22:02.091Z,15
2017-10-13T08:23:02.105Z,15
2017-10-13T08:24:02.089Z,15
2017-10-13T08:25:01.753Z,15
2017-10-13T08:26:02.394Z,15
2017-10-13T08:27:01.414Z,15
2017-10-13T08:28:01.730Z,15
2017-10-13T08:29:02.376Z,15
2017-10-13T08:30:02.377Z,15
2017-10-13T08:31:01.713Z,15
2017-10-13T08:32:02.026Z,15
2017-10-13T08:33:01.371Z,15
2017-10-13T08:34:01.688Z,15
2017-10-13T08:35:02.018Z,15
2017-10-13T08:36:01.678Z,15
2017-10-13T08:37:02.001Z,15
2017-10-13T08:38:02.315Z,15
2017-10-13T08:39:02.636Z,15
2017-10-13T08:40:01.653Z,15
2017-10-13T08:41:02.314Z,15
2017-10-13T08:42:01.973Z,15
2017-10-13T08:43:01.635Z,15
2017-10-13T08:44:02.280Z,15
2017-10-13T08:45:01.631Z,15
2017-10-13T08:46:01.289Z,15
2017-10-13T08:47:01.932Z,15
2017-10-13T08:48:01.947Z,15
2017-10-13T08:49:01.937Z,15
2017-10-13T08:50:01.917Z,15
2017-10-13T08:51:02.247Z,15
2017-10-13T08:52:02.552Z,15
2017-10-13T08:53:01.252Z,15
2017-10-13T08:54:01.568Z,15
2017-10-13T08:55:01.566Z,15
2017-10-13T08:56:01.873Z,15
2017-10-13T08:57:01.872Z,15
2017-10-13T08:58:01.865Z,15
2017-10-13T08:59:01.861Z,15
2017-10-13T09:00:01.848Z,15
2017-10-13T09:01:01.845Z,15
2017-10-13T09:02:01.844Z,15
2017-10-13T09:03:01.833Z,15
2017-10-13T09:04:02.157Z,15
2017-10-13T09:05:01.825Z,15
2017-10-13T09:06:01.815Z,15
2017-10-13T09:07:01.486Z,15
2017-10-13T09:08:02.164Z,15
2017-10-13T09:09:02.464Z,15
2017-10-13T09:10:01.800Z,15
2017-10-13T09:11:01.783Z,15
2017-10-13T09:12:01.455Z,15
2017-10-13T09:13:01.769Z,15
2017-10-13T09:14:02.083Z,15
2017-10-13T09:15:01.758Z,15
2017-10-13T09:16:01.759Z,15
2017-10-13T09:17:01.427Z,15
2017-10-13T09:18:01.749Z,15
2017-10-13T09:19:01.734Z,15
2017-10-13T09:20:02.059Z,15
2017-10-13T09:21:02.040Z,15
2017-10-13T09:22:02.043Z,15
2017-10-13T09:23:01.708Z,15
2017-10-13T09:24:01.053Z,15
2017-10-13T09:25:01.401Z,15
2017-10-13T09:26:02.014Z,15
2017-10-13T09:27:01.357Z,15
2017-10-13T09:28:01.686Z,15
2017-10-13T09:29:01.349Z,15
2017-10-13T09:30:01.664Z,15
2017-10-13T09:31:01.659Z,15
2017-10-13T09:32:01.332Z,15
2017-10-13T09:33:01.326Z,15
2017-10-13T09:34:01.961Z,15
2017-10-13T09:35:01.637Z,15
2017-10-13T09:36:01.309Z,15
2017-10-13T09:37:01.632Z,15
2017-10-13T09:38:01.945Z,15
2017-10-13T09:39:01.618Z,15
2017-10-13T09:40:01.623Z,15
2017-10-13T09:41:01.277Z,20
2017-10-13T09:42:02.248Z,20
2017-10-13T09:43:01.594Z,20
2017-10-13T09:44:01.908Z,20
2017-10-13T09:45:01.900Z,20
2017-10-13T09:46:01.893Z,20
2017-10-13T09:47:02.217Z,20
2017-10-13T09:48:01.574Z,15
2017-10-13T09:49:01.552Z,15
2017-10-13T09:50:01.546Z,15
2017-10-13T09:51:01.544Z,15
2017-10-13T09:52:01.537Z,15
2017-10-13T09:53:01.867Z,15
2017-10-13T09:54:01.534Z,15
2017-10-13T09:55:02.166Z,15
2017-10-13T09:56:01.185Z,15
2017-10-13T09:57:01.174Z,15
2017-10-13T09:58:01.498Z,15
2017-10-13T09:59:01.495Z,20
2017-10-13T10:00:01.493Z,20
2017-10-13T10:01:02.130Z,20
2017-10-13T10:02:01.795Z,20
2017-10-13T10:03:01.477Z,20
2017-10-13T10:04:01.462Z,20
2017-10-13T10:05:01.783Z,20
2017-10-13T10:06:01.454Z,20
2017-10-13T10:07:01.450Z,20
2017-10-13T10:08:02.087Z,20
2017-10-13T10:09:01.109Z,20
2017-10-13T10:10:00.778Z,20
2017-10-13T10:11:01.744Z,15
2017-10-13T10:12:00.768Z,20
2017-10-13T10:13:00.760Z,20
2017-10-13T10:14:01.084Z,15
2017-10-13T10:15:01.717Z,15
2017-10-13T10:16:01.080Z,15
2017-10-13T10:17:01.383Z,15
2017-10-13T10:18:01.699Z,20
2017-10-13T10:19:01.056Z,20
2017-10-13T10:20:02.011Z,20
2017-10-13T10:21:01.683Z,20
2017-10-13T10:22:01.363Z,20
2017-10-13T10:23:01.684Z,20
2017-10-13T10:24:00.699Z,20
2017-10-13T10:25:00.706Z,20
2017-10-13T10:26:00.685Z,20
2017-10-13T10:27:01.327Z,20
2017-10-13T10:28:00.674Z,20
2017-10-13T10:29:00.992Z,20
2017-10-13T10:30:01.310Z,20
2017-10-13T10:31:01.979Z,20
2017-10-13T10:32:00.972Z,20
2017-10-13T10:33:01.283Z,20
2017-10-13T10:34:00.637Z,20
2017-10-13T10:35:00.960Z,20
2017-10-13T10:36:01.274Z,20
2017-10-13T10:37:01.272Z,20
2017-10-13T10:38:01.581Z,20
2017-10-13T10:39:01.582Z,20
2017-10-13T10:40:00.926Z,20
2017-10-13T10:41:01.251Z,20
2017-10-13T10:42:01.238Z,20
2017-10-13T10:43:01.888Z,20
2017-10-13T10:44:00.902Z,20
2017-10-13T10:45:01.218Z,20
2017-10-13T10:46:01.213Z,20
2017-10-13T10:47:00.899Z,20
2017-10-13T10:48:00.582Z,20
2017-10-13T10:49:01.520Z,20
2017-10-13T10:50:01.839Z,20
2017-10-13T10:51:01.511Z,20
2017-10-13T10:52:00.856Z,20
2017-10-13T10:53:01.499Z,20
2017-10-13T10:54:01.166Z,20
2017-10-13T10:55:00.839Z,20
2017-10-13T10:56:00.832Z,20
2017-10-13T10:57:01.476Z,15
2017-10-13T10:58:01.171Z,15
2017-10-13T10:59:01.465Z,20
2017-10-13T11:00:01.456Z,20
2017-10-13T11:01:01.451Z,20
2017-10-13T11:02:01.442Z,20
2017-10-13T11:03:00.797Z,20
2017-10-13T11:04:00.464Z,20
2017-10-13T11:05:01.117Z,20
2017-10-13T11:06:01.095Z,20
2017-10-13T11:07:01.413Z,20
2017-10-13T11:08:01.084Z,20
2017-10-13T11:09:00.759Z,20
2017-10-13T11:10:00.751Z,20
2017-10-13T11:11:01.065Z,20
2017-10-13T11:12:01.073Z,20
2017-10-13T11:13:01.059Z,20
2017-10-13T11:14:00.730Z,20
2017-10-13T11:15:01.379Z,20
2017-10-13T11:16:00.712Z,20
2017-10-13T11:17:01.355Z,20
2017-10-13T11:18:01.348Z,25
2017-10-13T11:19:00.700Z,20
2017-10-13T11:20:15.608Z,20
2017-10-13T11:21:01.338Z,25
2017-10-13T11:22:01.665Z,20
2017-10-13T11:23:01.336Z,20
2017-10-13T11:24:00.670Z,20
2017-10-13T11:25:00.664Z,20
2017-10-13T11:26:01.315Z,25
2017-10-13T11:27:00.652Z,25
2017-10-13T11:28:00.327Z,20
2017-10-13T11:29:01.294Z,20
2017-10-13T11:30:00.961Z,20
2017-10-13T11:31:00.632Z,25
2017-10-13T11:32:01.270Z,25
2017-10-13T11:33:00.296Z,25
2017-10-13T11:34:00.616Z,25
2017-10-13T11:35:01.580Z,25
2017-10-13T11:36:01.276Z,25
2017-10-13T11:37:01.249Z,25
2017-10-13T11:38:00.909Z,25
2017-10-13T11:39:00.905Z,20
2017-10-13T11:40:00.924Z,20
2017-10-13T11:41:00.902Z,20
2017-10-13T11:42:01.226Z,25
2017-10-13T11:43:01.209Z,25
2017-10-13T11:44:00.560Z,25
2017-10-13T11:45:01.202Z,25
2017-10-13T11:46:00.544Z,25
2017-10-13T11:47:01.204Z,25
2017-10-13T11:48:01.504Z,25
2017-10-13T11:49:01.175Z,25
2017-10-13T11:50:00.520Z,25
2017-10-13T11:51:00.840Z,25
2017-10-13T11:52:00.510Z,25
2017-10-13T11:53:01.152Z,25
2017-10-13T11:54:00.503Z,25
2017-10-13T11:55:00.813Z,20
2017-10-13T11:56:00.166Z,20
2017-10-13T11:57:00.812Z,20
2017-10-13T11:58:00.802Z,25
2017-10-13T11:59:00.470Z,25
2017-10-13T12:00:00.804Z,20
2017-10-13T12:01:01.435Z,20
2017-10-13T12:02:00.462Z,20
2017-10-13T12:03:01.429Z,20
2017-10-13T12:04:01.089Z,20
2017-10-13T12:05:00.756Z,20
2017-10-13T12:06:00.755Z,20
2017-10-13T12:07:00.749Z,20
2017-10-13T12:08:00.420Z,20
2017-10-13T12:09:00.754Z,20
2017-10-13T12:10:00.409Z,20
2017-10-13T12:11:00.729Z,20
2017-10-13T12:12:00.399Z,20
2017-10-13T12:13:01.035Z,20
2017-10-13T12:14:00.713Z,20
2017-10-13T12:15:00.377Z,20
2017-10-13T12:16:01.025Z,25
2017-10-13T12:17:00.371Z,25
2017-10-13T12:18:00.695Z,25
2017-10-13T12:19:00.687Z,25
2017-10-13T12:20:00.352Z,25
2017-10-13T12:21:00.672Z,25
2017-10-13T12:22:00.350Z,25
2017-10-13T12:23:00.336Z,25
2017-10-13T12:24:00.979Z,25
2017-10-13T12:25:00.322Z,25
2017-10-13T12:26:00.639Z,20
2017-10-13T12:27:00.635Z,20
2017-10-13T12:28:00.958Z,20
2017-10-13T12:29:01.268Z,20
2017-10-13T12:30:00.615Z,25
2017-10-13T12:31:00.291Z,20
2017-10-13T12:32:00.286Z,25
2017-10-13T12:32:59.957Z,25
2017-10-13T12:34:00.589Z,25
2017-10-13T12:35:00.911Z,25
2017-10-13T12:36:00.258Z,25
2017-10-13T12:37:01.228Z,25
2017-10-13T12:38:01.233Z,25
2017-10-13T12:39:00.577Z,25
2017-10-13T12:40:00.570Z,25
2017-10-13T12:41:00.562Z,25
2017-10-13T12:42:00.230Z,25
2017-10-13T12:43:00.221Z,25
2017-10-13T12:44:00.890Z,25
2017-10-13T12:45:00.209Z,25
2017-10-13T12:45:59.889Z,25
2017-10-13T12:47:00.882Z,25
2017-10-13T12:48:00.209Z,25
2017-10-13T12:49:00.189Z,25
2017-10-13T12:50:00.827Z,25
2017-10-13T12:51:00.827Z,25
2017-10-13T12:52:00.173Z,25
2017-10-13T12:53:00.490Z,25
2017-10-13T12:54:00.831Z,25
2017-10-13T12:55:00.478Z,25
2017-10-13T12:56:00.483Z,25
2017-10-13T12:57:00.146Z,25
2017-10-13T12:58:00.144Z,25
2017-10-13T12:59:00.454Z,25
2017-10-13T13:00:00.461Z,25
2017-10-13T13:01:00.445Z,25
2017-10-13T13:02:01.091Z,25
2017-10-13T13:03:00.753Z,25
2017-10-13T13:04:00.426Z,25
2017-10-13T13:05:00.760Z,25
2017-10-13T13:06:00.093Z,25
2017-10-13T13:07:00.739Z,25
2017-10-13T13:08:00.738Z,25
2017-10-13T13:09:00.410Z,25
2017-10-13T13:10:00.392Z,25
2017-10-13T13:11:00.067Z,25
2017-10-13T13:12:00.706Z,25
2017-10-13T13:13:00.700Z,25
2017-10-13T13:14:00.376Z,25
2017-10-13T13:15:00.694Z,25
2017-10-13T13:16:00.040Z,25
2017-10-13T13:17:00.360Z,25
2017-10-13T13:18:00.677Z,25
2017-10-13T13:19:00.342Z,25
2017-10-13T13:20:00.366Z,25
2017-10-13T13:21:00.331Z,25
2017-10-13T13:22:00.006Z,25
2017-10-13T13:23:00.002Z,25
2017-10-13T13:24:00.969Z,25
2017-10-13T13:25:00.317Z,25
2017-10-13T13:26:00.631Z,25
2017-10-13T13:27:00.330Z,25
2017-10-13T13:27:59.976Z,25
2017-10-13T13:28:59.968Z,25
2017-10-13T13:29:59.962Z,25
2017-10-13T13:30:59.962Z,25
2017-10-13T13:32:00.615Z,25
2017-10-13T13:32:59.622Z,25
2017-10-13T13:33:59.944Z,25
2017-10-13T13:35:00.268Z,25
2017-10-13T13:36:00.919Z,25
2017-10-13T13:37:00.253Z,25
2017-10-13T13:38:00.271Z,25
2017-10-13T13:38:59.912Z,25
2017-10-13T13:40:00.565Z,25
2017-10-13T13:41:00.223Z,25
2017-10-13T13:41:59.903Z,25
2017-10-13T13:43:00.231Z,25
2017-10-13T13:43:59.888Z,25
2017-10-13T13:45:00.208Z,25
2017-10-13T13:46:00.529Z,25
2017-10-13T13:46:59.551Z,25
2017-10-13T13:47:59.552Z,25
2017-10-13T13:49:00.188Z,25
2017-10-13T13:50:00.205Z,25
2017-10-13T13:50:59.848Z,25
2017-10-13T13:52:00.167Z,25
2017-10-13T13:53:00.483Z,25
2017-10-13T13:54:00.156Z,25
2017-10-13T13:54:59.834Z,25
2017-10-13T13:56:00.152Z,25
2017-10-13T13:57:00.466Z,25
2017-10-13T13:58:00.137Z,25
2017-10-13T13:58:59.478Z,25
2017-10-13T14:00:00.124Z,25
2017-10-13T14:00:59.796Z,25
2017-10-13T14:01:59.790Z,25
2017-10-13T14:03:00.142Z,25
2017-10-13T14:04:00.760Z,25
2017-10-13T14:04:59.773Z,25
2017-10-13T14:06:00.417Z,25
2017-10-13T14:07:00.733Z,25
2017-10-13T14:08:00.430Z,25
2017-10-13T14:09:00.093Z,30
2017-10-13T14:09:59.748Z,30
2017-10-13T14:11:00.064Z,30
2017-10-13T14:12:00.385Z,30
2017-10-13T14:13:00.381Z,30
2017-10-13T14:14:00.378Z,30
2017-10-13T14:15:00.364Z,30
2017-10-13T14:15:59.397Z,30
2017-10-13T14:17:00.061Z,30
2017-10-13T14:17:59.714Z,30
2017-10-13T14:18:59.698Z,35
2017-10-13T14:20:00.017Z,35
2017-10-13T14:21:00.025Z,35
2017-10-13T14:22:00.007Z,35
2017-10-13T14:22:59.679Z,40
2017-10-13T14:23:59.675Z,40
2017-10-13T14:24:59.674Z,40
2017-10-13T14:25:59.662Z,45
2017-10-13T14:26:59.984Z,45
2017-10-13T14:27:59.975Z,45
2017-10-13T14:28:59.653Z,50
2017-10-13T14:29:59.970Z,50
2017-10-13T14:31:00.282Z,50
2017-10-13T14:31:59.955Z,50
2017-10-13T14:32:59.951Z,50